sensor_id;sensor_type;location;lat;lon;timestamp;P1;durP1;ratioP1;P2;durP2;ratioP2
20146;SDS011;10234;50.856;15.716;2023-06-22T00:01:12;4.85;;;4.03;;
20146;SDS011;10234;50.856;15.716;2023-06-22T00:03:39;7.50;;;4.32;;
20146;SDS011;10234;50.856;15.716;2023-06-22T00:06:06;4.95;;;4.03;;
20146;SDS011;10234;50.856;15.716;2023-06-22T00:08:33;4.40;;;4.03;;
20146;SDS011;10234;50.856;15.716;2023-06-22T00:11:00;4.40;;;3.95;;
20146;SDS011;10234;50.856;15.716;2023-06-22T00:13:27;5.60;;;5.05;;
20146;SDS011;10234;50.856;15.716;2023-06-22T00:15:55;5.47;;;4.45;;
20146;SDS011;10234;50.856;15.716;2023-06-22T00:18:23;4.70;;;4.15;;
20146;SDS011;10234;50.856;15.716;2023-06-22T00:20:53;6.78;;;4.53;;
20146;SDS011;10234;50.856;15.716;2023-06-22T00:23:22;5.53;;;4.75;;
20146;SDS011;10234;50.856;15.716;2023-06-22T00:25:49;6.18;;;4.45;;
20146;SDS011;10234;50.856;15.716;2023-06-22T00:28:16;6.18;;;4.25;;
20146;SDS011;10234;50.856;15.716;2023-06-22T00:30:43;6.63;;;4.68;;
20146;SDS011;10234;50.856;15.716;2023-06-22T00:33:12;5.30;;;4.47;;
20146;SDS011;10234;50.856;15.716;2023-06-22T00:35:38;4.40;;;4.00;;
20146;SDS011;10234;50.856;15.716;2023-06-22T00:38:06;5.22;;;4.72;;
20146;SDS011;10234;50.856;15.716;2023-06-22T00:40:33;5.43;;;4.53;;
20146;SDS011;10234;50.856;15.716;2023-06-22T00:43:00;4.85;;;4.35;;
20146;SDS011;10234;50.856;15.716;2023-06-22T00:45:28;9.55;;;4.70;;
20146;SDS011;10234;50.856;15.716;2023-06-22T00:47:55;5.10;;;4.22;;
20146;SDS011;10234;50.856;15.716;2023-06-22T00:50:25;7.43;;;4.82;;
20146;SDS011;10234;50.856;15.716;2023-06-22T00:55:34;7.82;;;4.75;;
20146;SDS011;10234;50.856;15.716;2023-06-22T00:58:03;7.18;;;4.35;;
20146;SDS011;10234;50.856;15.716;2023-06-22T01:00:33;5.40;;;4.65;;
20146;SDS011;10234;50.856;15.716;2023-06-22T01:03:01;5.20;;;4.63;;
20146;SDS011;10234;50.856;15.716;2023-06-22T01:05:30;5.72;;;5.13;;
20146;SDS011;10234;50.856;15.716;2023-06-22T01:08:04;6.13;;;4.60;;
20146;SDS011;10234;50.856;15.716;2023-06-22T01:10:37;4.75;;;4.25;;
20146;SDS011;10234;50.856;15.716;2023-06-22T01:13:09;5.13;;;4.63;;
20146;SDS011;10234;50.856;15.716;2023-06-22T01:15:43;5.35;;;4.80;;
20146;SDS011;10234;50.856;15.716;2023-06-22T01:18:14;5.15;;;4.43;;
20146;SDS011;10234;50.856;15.716;2023-06-22T01:20:43;4.97;;;4.35;;
20146;SDS011;10234;50.856;15.716;2023-06-22T01:23:11;6.30;;;4.68;;
20146;SDS011;10234;50.856;15.716;2023-06-22T01:25:47;5.40;;;4.90;;
20146;SDS011;10234;50.856;15.716;2023-06-22T01:28:23;6.63;;;4.43;;
20146;SDS011;10234;50.856;15.716;2023-06-22T01:31:01;5.72;;;4.65;;
20146;SDS011;10234;50.856;15.716;2023-06-22T01:33:30;5.07;;;4.55;;
20146;SDS011;10234;50.856;15.716;2023-06-22T01:36:00;6.40;;;5.28;;
20146;SDS011;10234;50.856;15.716;2023-06-22T01:38:28;6.03;;;5.10;;
20146;SDS011;10234;50.856;15.716;2023-06-22T01:40:56;4.85;;;4.38;;
20146;SDS011;10234;50.856;15.716;2023-06-22T01:43:24;6.65;;;4.68;;
20146;SDS011;10234;50.856;15.716;2023-06-22T01:45:52;5.47;;;4.97;;
20146;SDS011;10234;50.856;15.716;2023-06-22T01:48:19;12.23;;;5.13;;
20146;SDS011;10234;50.856;15.716;2023-06-22T01:50:46;6.05;;;5.20;;
20146;SDS011;10234;50.856;15.716;2023-06-22T01:53:14;6.70;;;5.13;;
20146;SDS011;10234;50.856;15.716;2023-06-22T01:55:40;6.03;;;5.13;;
20146;SDS011;10234;50.856;15.716;2023-06-22T01:58:07;5.18;;;4.68;;
20146;SDS011;10234;50.856;15.716;2023-06-22T02:00:36;4.97;;;4.18;;
20146;SDS011;10234;50.856;15.716;2023-06-22T02:03:08;6.82;;;5.10;;
20146;SDS011;10234;50.856;15.716;2023-06-22T02:05:43;6.00;;;4.70;;
20146;SDS011;10234;50.856;15.716;2023-06-22T02:08:16;6.53;;;4.85;;
20146;SDS011;10234;50.856;15.716;2023-06-22T02:10:46;7.53;;;5.22;;
20146;SDS011;10234;50.856;15.716;2023-06-22T02:13:14;5.43;;;4.90;;
20146;SDS011;10234;50.856;15.716;2023-06-22T02:15:41;5.20;;;4.20;;
20146;SDS011;10234;50.856;15.716;2023-06-22T02:18:10;5.60;;;4.90;;
20146;SDS011;10234;50.856;15.716;2023-06-22T02:20:37;6.22;;;4.70;;
20146;SDS011;10234;50.856;15.716;2023-06-22T02:23:04;9.40;;;5.35;;
20146;SDS011;10234;50.856;15.716;2023-06-22T02:25:32;7.38;;;5.15;;
20146;SDS011;10234;50.856;15.716;2023-06-22T02:27:59;5.78;;;5.13;;
20146;SDS011;10234;50.856;15.716;2023-06-22T02:30:26;5.45;;;4.80;;
20146;SDS011;10234;50.856;15.716;2023-06-22T02:32:53;5.38;;;4.80;;
20146;SDS011;10234;50.856;15.716;2023-06-22T02:35:25;6.57;;;5.15;;
20146;SDS011;10234;50.856;15.716;2023-06-22T02:37:56;6.75;;;5.22;;
20146;SDS011;10234;50.856;15.716;2023-06-22T02:40:23;6.55;;;4.93;;
20146;SDS011;10234;50.856;15.716;2023-06-22T02:42:50;6.25;;;4.85;;
20146;SDS011;10234;50.856;15.716;2023-06-22T02:45:17;6.55;;;5.40;;
20146;SDS011;10234;50.856;15.716;2023-06-22T02:47:44;5.82;;;4.93;;
20146;SDS011;10234;50.856;15.716;2023-06-22T02:50:12;6.95;;;5.53;;
20146;SDS011;10234;50.856;15.716;2023-06-22T02:52:41;6.57;;;5.28;;
20146;SDS011;10234;50.856;15.716;2023-06-22T02:55:08;5.47;;;4.95;;
20146;SDS011;10234;50.856;15.716;2023-06-22T02:57:35;7.10;;;4.93;;
20146;SDS011;10234;50.856;15.716;2023-06-22T03:00:02;6.28;;;4.88;;
20146;SDS011;10234;50.856;15.716;2023-06-22T03:02:41;6.32;;;5.43;;
20146;SDS011;10234;50.856;15.716;2023-06-22T03:05:09;7.97;;;6.30;;
20146;SDS011;10234;50.856;15.716;2023-06-22T03:07:38;7.22;;;5.78;;
20146;SDS011;10234;50.856;15.716;2023-06-22T03:10:08;7.10;;;5.13;;
20146;SDS011;10234;50.856;15.716;2023-06-22T03:12:36;5.90;;;5.30;;
20146;SDS011;10234;50.856;15.716;2023-06-22T03:15:04;7.60;;;5.60;;
20146;SDS011;10234;50.856;15.716;2023-06-22T03:17:31;5.75;;;5.15;;
20146;SDS011;10234;50.856;15.716;2023-06-22T03:19:59;6.07;;;5.22;;
20146;SDS011;10234;50.856;15.716;2023-06-22T03:22:26;6.13;;;4.70;;
20146;SDS011;10234;50.856;15.716;2023-06-22T03:24:54;6.60;;;4.90;;
20146;SDS011;10234;50.856;15.716;2023-06-22T03:27:21;6.55;;;5.45;;
20146;SDS011;10234;50.856;15.716;2023-06-22T03:29:48;7.10;;;4.85;;
20146;SDS011;10234;50.856;15.716;2023-06-22T03:32:14;5.82;;;4.65;;
20146;SDS011;10234;50.856;15.716;2023-06-22T03:34:42;5.28;;;4.78;;
20146;SDS011;10234;50.856;15.716;2023-06-22T03:37:12;6.47;;;4.97;;
20146;SDS011;10234;50.856;15.716;2023-06-22T03:39:39;6.47;;;5.20;;
20146;SDS011;10234;50.856;15.716;2023-06-22T03:42:07;6.55;;;5.43;;
20146;SDS011;10234;50.856;15.716;2023-06-22T03:44:34;6.85;;;5.07;;
20146;SDS011;10234;50.856;15.716;2023-06-22T03:47:01;7.50;;;5.93;;
20146;SDS011;10234;50.856;15.716;2023-06-22T03:49:28;6.15;;;5.38;;
20146;SDS011;10234;50.856;15.716;2023-06-22T03:51:55;5.22;;;4.72;;
20146;SDS011;10234;50.856;15.716;2023-06-22T03:54:22;5.57;;;4.93;;
20146;SDS011;10234;50.856;15.716;2023-06-22T03:56:50;6.65;;;4.47;;
20146;SDS011;10234;50.856;15.716;2023-06-22T03:59:18;6.80;;;6.05;;
20146;SDS011;10234;50.856;15.716;2023-06-22T04:01:45;5.32;;;4.82;;
20146;SDS011;10234;50.856;15.716;2023-06-22T04:04:12;7.78;;;5.38;;
20146;SDS011;10234;50.856;15.716;2023-06-22T04:06:39;5.60;;;4.90;;
20146;SDS011;10234;50.856;15.716;2023-06-22T04:09:06;5.95;;;5.32;;
20146;SDS011;10234;50.856;15.716;2023-06-22T04:11:33;6.70;;;4.68;;
20146;SDS011;10234;50.856;15.716;2023-06-22T04:14:00;4.40;;;4.00;;
20146;SDS011;10234;50.856;15.716;2023-06-22T04:16:28;6.65;;;4.80;;
20146;SDS011;10234;50.856;15.716;2023-06-22T04:18:55;7.82;;;5.38;;
20146;SDS011;10234;50.856;15.716;2023-06-22T04:21:22;9.57;;;5.18;;
20146;SDS011;10234;50.856;15.716;2023-06-22T04:23:49;5.82;;;4.50;;
20146;SDS011;10234;50.856;15.716;2023-06-22T04:26:16;5.10;;;4.53;;
20146;SDS011;10234;50.856;15.716;2023-06-22T04:28:45;5.68;;;4.95;;
20146;SDS011;10234;50.856;15.716;2023-06-22T04:31:16;5.93;;;5.32;;
20146;SDS011;10234;50.856;15.716;2023-06-22T04:33:46;5.97;;;5.03;;
20146;SDS011;10234;50.856;15.716;2023-06-22T04:36:12;4.78;;;4.30;;
20146;SDS011;10234;50.856;15.716;2023-06-22T04:38:40;5.35;;;4.43;;
20146;SDS011;10234;50.856;15.716;2023-06-22T04:41:07;7.45;;;4.45;;
20146;SDS011;10234;50.856;15.716;2023-06-22T04:43:39;5.82;;;4.57;;
20146;SDS011;10234;50.856;15.716;2023-06-22T04:46:06;5.45;;;4.95;;
20146;SDS011;10234;50.856;15.716;2023-06-22T04:48:33;5.18;;;4.35;;
20146;SDS011;10234;50.856;15.716;2023-06-22T04:51:01;7.05;;;5.18;;
20146;SDS011;10234;50.856;15.716;2023-06-22T04:53:29;5.30;;;4.72;;
20146;SDS011;10234;50.856;15.716;2023-06-22T04:55:56;7.25;;;4.72;;
20146;SDS011;10234;50.856;15.716;2023-06-22T04:58:23;4.72;;;4.30;;
20146;SDS011;10234;50.856;15.716;2023-06-22T05:00:53;5.57;;;5.03;;
20146;SDS011;10234;50.856;15.716;2023-06-22T05:03:22;5.45;;;4.75;;
20146;SDS011;10234;50.856;15.716;2023-06-22T05:05:50;7.47;;;5.28;;
20146;SDS011;10234;50.856;15.716;2023-06-22T05:08:19;8.70;;;5.03;;
20146;SDS011;10234;50.856;15.716;2023-06-22T05:10:46;7.60;;;4.40;;
20146;SDS011;10234;50.856;15.716;2023-06-22T05:13:13;5.80;;;5.20;;
20146;SDS011;10234;50.856;15.716;2023-06-22T05:15:40;4.60;;;4.20;;
20146;SDS011;10234;50.856;15.716;2023-06-22T05:18:07;5.78;;;4.85;;
20146;SDS011;10234;50.856;15.716;2023-06-22T05:20:36;6.55;;;4.50;;
20146;SDS011;10234;50.856;15.716;2023-06-22T05:23:03;5.10;;;4.60;;
20146;SDS011;10234;50.856;15.716;2023-06-22T05:25:31;5.65;;;4.70;;
20146;SDS011;10234;50.856;15.716;2023-06-22T05:27:58;5.13;;;4.55;;
20146;SDS011;10234;50.856;15.716;2023-06-22T05:30:25;5.35;;;4.85;;
20146;SDS011;10234;50.856;15.716;2023-06-22T05:32:53;5.10;;;4.60;;
20146;SDS011;10234;50.856;15.716;2023-06-22T05:35:21;6.07;;;4.82;;
20146;SDS011;10234;50.856;15.716;2023-06-22T05:37:48;5.50;;;4.93;;
20146;SDS011;10234;50.856;15.716;2023-06-22T05:40:15;5.70;;;4.53;;
20146;SDS011;10234;50.856;15.716;2023-06-22T05:42:43;5.70;;;5.13;;
20146;SDS011;10234;50.856;15.716;2023-06-22T05:45:10;7.75;;;4.95;;
20146;SDS011;10234;50.856;15.716;2023-06-22T05:47:37;5.53;;;4.72;;
20146;SDS011;10234;50.856;15.716;2023-06-22T05:50:04;5.07;;;4.57;;
20146;SDS011;10234;50.856;15.716;2023-06-22T05:52:33;5.63;;;4.82;;
20146;SDS011;10234;50.856;15.716;2023-06-22T05:55:01;5.50;;;5.00;;
20146;SDS011;10234;50.856;15.716;2023-06-22T05:57:28;6.15;;;4.85;;
20146;SDS011;10234;50.856;15.716;2023-06-22T05:59:56;5.80;;;4.93;;
20146;SDS011;10234;50.856;15.716;2023-06-22T06:02:23;6.35;;;4.90;;
20146;SDS011;10234;50.856;15.716;2023-06-22T06:04:50;5.50;;;5.00;;
20146;SDS011;10234;50.856;15.716;2023-06-22T06:07:17;7.30;;;5.13;;
20146;SDS011;10234;50.856;15.716;2023-06-22T06:09:44;5.22;;;4.72;;
20146;SDS011;10234;50.856;15.716;2023-06-22T06:12:11;5.10;;;4.60;;
20146;SDS011;10234;50.856;15.716;2023-06-22T06:14:38;4.97;;;4.47;;
20146;SDS011;10234;50.856;15.716;2023-06-22T06:17:06;5.00;;;4.47;;
20146;SDS011;10234;50.856;15.716;2023-06-22T06:19:33;5.50;;;4.57;;
20146;SDS011;10234;50.856;15.716;2023-06-22T06:22:00;6.78;;;4.78;;
20146;SDS011;10234;50.856;15.716;2023-06-22T06:24:27;5.07;;;4.43;;
20146;SDS011;10234;50.856;15.716;2023-06-22T06:26:55;4.47;;;4.07;;
20146;SDS011;10234;50.856;15.716;2023-06-22T06:29:22;7.22;;;4.35;;
20146;SDS011;10234;50.856;15.716;2023-06-22T06:31:49;5.15;;;4.18;;
20146;SDS011;10234;50.856;15.716;2023-06-22T06:34:17;4.38;;;3.97;;
20146;SDS011;10234;50.856;15.716;2023-06-22T06:36:44;4.68;;;4.25;;
20146;SDS011;10234;50.856;15.716;2023-06-22T06:39:11;4.28;;;3.88;;
20146;SDS011;10234;50.856;15.716;2023-06-22T06:41:38;6.10;;;3.72;;
20146;SDS011;10234;50.856;15.716;2023-06-22T06:44:05;4.50;;;4.15;;
20146;SDS011;10234;50.856;15.716;2023-06-22T06:46:32;4.38;;;3.97;;
20146;SDS011;10234;50.856;15.716;2023-06-22T06:48:59;4.47;;;4.07;;
20146;SDS011;10234;50.856;15.716;2023-06-22T06:51:27;4.80;;;4.30;;
20146;SDS011;10234;50.856;15.716;2023-06-22T06:53:54;5.03;;;4.53;;
20146;SDS011;10234;50.856;15.716;2023-06-22T06:56:21;4.47;;;4.00;;
20146;SDS011;10234;50.856;15.716;2023-06-22T06:58:49;4.32;;;3.92;;
20146;SDS011;10234;50.856;15.716;2023-06-22T07:01:16;4.47;;;4.07;;
20146;SDS011;10234;50.856;15.716;2023-06-22T07:03:44;5.47;;;4.00;;
20146;SDS011;10234;50.856;15.716;2023-06-22T07:06:11;5.75;;;4.07;;
20146;SDS011;10234;50.856;15.716;2023-06-22T07:08:40;4.80;;;4.40;;
20146;SDS011;10234;50.856;15.716;2023-06-22T07:11:07;4.35;;;3.95;;
20146;SDS011;10234;50.856;15.716;2023-06-22T07:13:34;4.22;;;3.88;;
20146;SDS011;10234;50.856;15.716;2023-06-22T07:16:01;4.43;;;4.03;;
20146;SDS011;10234;50.856;15.716;2023-06-22T07:18:28;4.65;;;4.10;;
20146;SDS011;10234;50.856;15.716;2023-06-22T07:20:55;3.78;;;3.47;;
20146;SDS011;10234;50.856;15.716;2023-06-22T07:23:22;4.20;;;3.90;;
20146;SDS011;10234;50.856;15.716;2023-06-22T07:25:51;4.05;;;3.75;;
20146;SDS011;10234;50.856;15.716;2023-06-22T07:28:17;5.43;;;4.22;;
20146;SDS011;10234;50.856;15.716;2023-06-22T07:30:44;3.83;;;3.53;;
20146;SDS011;10234;50.856;15.716;2023-06-22T07:33:12;4.97;;;3.30;;
20146;SDS011;10234;50.856;15.716;2023-06-22T07:35:39;4.00;;;3.70;;
20146;SDS011;10234;50.856;15.716;2023-06-22T07:38:06;3.88;;;3.53;;
20146;SDS011;10234;50.856;15.716;2023-06-22T07:40:34;3.65;;;3.17;;
20146;SDS011;10234;50.856;15.716;2023-06-22T07:43:02;3.40;;;3.10;;
20146;SDS011;10234;50.856;15.716;2023-06-22T07:45:29;3.40;;;3.10;;
20146;SDS011;10234;50.856;15.716;2023-06-22T07:47:58;3.85;;;3.55;;
20146;SDS011;10234;50.856;15.716;2023-06-22T07:50:25;3.92;;;3.63;;
20146;SDS011;10234;50.856;15.716;2023-06-22T07:52:52;3.70;;;3.20;;
20146;SDS011;10234;50.856;15.716;2023-06-22T07:55:19;4.35;;;3.95;;
20146;SDS011;10234;50.856;15.716;2023-06-22T07:57:46;3.85;;;3.42;;
20146;SDS011;10234;50.856;15.716;2023-06-22T08:00:18;3.70;;;3.40;;
20146;SDS011;10234;50.856;15.716;2023-06-22T08:02:45;3.60;;;3.30;;
20146;SDS011;10234;50.856;15.716;2023-06-22T08:05:13;4.03;;;3.72;;
20146;SDS011;10234;50.856;15.716;2023-06-22T08:07:42;4.68;;;3.65;;
20146;SDS011;10234;50.856;15.716;2023-06-22T08:10:10;3.83;;;3.42;;
20146;SDS011;10234;50.856;15.716;2023-06-22T08:12:37;5.63;;;3.58;;
20146;SDS011;10234;50.856;15.716;2023-06-22T08:15:05;3.80;;;3.40;;
20146;SDS011;10234;50.856;15.716;2023-06-22T08:17:35;3.65;;;3.35;;
20146;SDS011;10234;50.856;15.716;2023-06-22T08:20:03;3.30;;;3.10;;
20146;SDS011;10234;50.856;15.716;2023-06-22T08:22:34;4.35;;;3.97;;
20146;SDS011;10234;50.856;15.716;2023-06-22T08:25:01;5.40;;;3.40;;
20146;SDS011;10234;50.856;15.716;2023-06-22T08:27:29;3.42;;;3.13;;
20146;SDS011;10234;50.856;15.716;2023-06-22T08:29:56;3.65;;;3.35;;
20146;SDS011;10234;50.856;15.716;2023-06-22T08:32:24;3.35;;;3.10;;
20146;SDS011;10234;50.856;15.716;2023-06-22T08:34:52;4.03;;;2.97;;
20146;SDS011;10234;50.856;15.716;2023-06-22T08:37:19;3.38;;;2.95;;
20146;SDS011;10234;50.856;15.716;2023-06-22T08:39:55;4.13;;;3.13;;
20146;SDS011;10234;50.856;15.716;2023-06-22T08:42:22;3.72;;;3.42;;
20146;SDS011;10234;50.856;15.716;2023-06-22T08:44:50;3.90;;;3.50;;
20146;SDS011;10234;50.856;15.716;2023-06-22T08:47:17;3.60;;;3.30;;
20146;SDS011;10234;50.856;15.716;2023-06-22T08:49:44;4.07;;;3.20;;
20146;SDS011;10234;50.856;15.716;2023-06-22T08:52:12;3.65;;;3.35;;
20146;SDS011;10234;50.856;15.716;2023-06-22T08:54:39;3.13;;;2.80;;
20146;SDS011;10234;50.856;15.716;2023-06-22T08:57:05;4.55;;;3.38;;
20146;SDS011;10234;50.856;15.716;2023-06-22T08:59:32;3.30;;;3.00;;
20146;SDS011;10234;50.856;15.716;2023-06-22T09:01:59;4.57;;;2.80;;
20146;SDS011;10234;50.856;15.716;2023-06-22T09:04:26;3.90;;;3.55;;
20146;SDS011;10234;50.856;15.716;2023-06-22T09:06:53;4.45;;;3.28;;
20146;SDS011;10234;50.856;15.716;2023-06-22T09:09:22;3.65;;;3.35;;
20146;SDS011;10234;50.856;15.716;2023-06-22T09:11:48;3.38;;;2.92;;
20146;SDS011;10234;50.856;15.716;2023-06-22T09:14:15;3.63;;;3.15;;
20146;SDS011;10234;50.856;15.716;2023-06-22T09:16:42;3.83;;;3.50;;
20146;SDS011;10234;50.856;15.716;2023-06-22T09:19:09;3.40;;;3.13;;
20146;SDS011;10234;50.856;15.716;2023-06-22T09:21:36;3.50;;;3.20;;
20146;SDS011;10234;50.856;15.716;2023-06-22T09:24:03;5.22;;;3.75;;
20146;SDS011;10234;50.856;15.716;2023-06-22T09:26:32;4.03;;;3.53;;
20146;SDS011;10234;50.856;15.716;2023-06-22T09:28:58;4.28;;;3.33;;
20146;SDS011;10234;50.856;15.716;2023-06-22T09:31:25;4.72;;;3.53;;
20146;SDS011;10234;50.856;15.716;2023-06-22T09:33:52;3.80;;;3.50;;
20146;SDS011;10234;50.856;15.716;2023-06-22T09:36:20;4.18;;;3.78;;
20146;SDS011;10234;50.856;15.716;2023-06-22T09:38:47;3.60;;;2.97;;
20146;SDS011;10234;50.856;15.716;2023-06-22T09:41:14;7.38;;;3.50;;
20146;SDS011;10234;50.856;15.716;2023-06-22T09:43:42;9.02;;;3.83;;
20146;SDS011;10234;50.856;15.716;2023-06-22T09:46:10;4.00;;;3.63;;
20146;SDS011;10234;50.856;15.716;2023-06-22T09:48:36;4.90;;;3.67;;
20146;SDS011;10234;50.856;15.716;2023-06-22T09:51:03;5.25;;;4.15;;
20146;SDS011;10234;50.856;15.716;2023-06-22T09:53:30;4.25;;;3.85;;
20146;SDS011;10234;50.856;15.716;2023-06-22T09:55:57;4.78;;;4.22;;
20146;SDS011;10234;50.856;15.716;2023-06-22T09:58:24;4.13;;;3.72;;
20146;SDS011;10234;50.856;15.716;2023-06-22T10:00:52;4.80;;;3.97;;
20146;SDS011;10234;50.856;15.716;2023-06-22T10:03:19;4.35;;;3.95;;
20146;SDS011;10234;50.856;15.716;2023-06-22T10:05:46;4.85;;;4.38;;
20146;SDS011;10234;50.856;15.716;2023-06-22T10:08:13;5.15;;;4.75;;
20146;SDS011;10234;50.856;15.716;2023-06-22T10:10:40;5.15;;;4.40;;
20146;SDS011;10234;50.856;15.716;2023-06-22T10:13:08;8.63;;;4.70;;
20146;SDS011;10234;50.856;15.716;2023-06-22T10:15:36;5.65;;;4.30;;
20146;SDS011;10234;50.856;15.716;2023-06-22T10:18:04;4.90;;;4.40;;
20146;SDS011;10234;50.856;15.716;2023-06-22T10:20:31;5.10;;;4.50;;
20146;SDS011;10234;50.856;15.716;2023-06-22T10:22:57;7.00;;;4.70;;
20146;SDS011;10234;50.856;15.716;2023-06-22T10:25:25;5.07;;;4.35;;
20146;SDS011;10234;50.856;15.716;2023-06-22T10:27:52;4.80;;;4.40;;
20146;SDS011;10234;50.856;15.716;2023-06-22T10:30:19;5.53;;;4.25;;
20146;SDS011;10234;50.856;15.716;2023-06-22T10:32:46;7.10;;;4.43;;
20146;SDS011;10234;50.856;15.716;2023-06-22T10:35:14;5.15;;;4.35;;
20146;SDS011;10234;50.856;15.716;2023-06-22T10:37:42;5.45;;;4.63;;
20146;SDS011;10234;50.856;15.716;2023-06-22T10:40:10;4.85;;;4.45;;
20146;SDS011;10234;50.856;15.716;2023-06-22T10:42:38;5.50;;;5.00;;
20146;SDS011;10234;50.856;15.716;2023-06-22T10:45:06;5.25;;;4.75;;
20146;SDS011;10234;50.856;15.716;2023-06-22T10:47:33;4.95;;;4.50;;
20146;SDS011;10234;50.856;15.716;2023-06-22T10:50:01;4.90;;;4.43;;
20146;SDS011;10234;50.856;15.716;2023-06-22T10:52:29;5.82;;;4.43;;
20146;SDS011;10234;50.856;15.716;2023-06-22T10:54:56;4.82;;;4.32;;
20146;SDS011;10234;50.856;15.716;2023-06-22T10:57:23;5.57;;;4.30;;
20146;SDS011;10234;50.856;15.716;2023-06-22T10:59:50;7.85;;;5.00;;
20146;SDS011;10234;50.856;15.716;2023-06-22T11:02:17;6.28;;;4.57;;
20146;SDS011;10234;50.856;15.716;2023-06-22T11:04:44;4.70;;;4.28;;
20146;SDS011;10234;50.856;15.716;2023-06-22T11:07:12;6.70;;;5.07;;
20146;SDS011;10234;50.856;15.716;2023-06-22T11:09:40;4.85;;;4.43;;
20146;SDS011;10234;50.856;15.716;2023-06-22T11:12:09;5.68;;;4.80;;
20146;SDS011;10234;50.856;15.716;2023-06-22T11:14:36;4.85;;;4.25;;
20146;SDS011;10234;50.856;15.716;2023-06-22T11:17:03;6.15;;;4.25;;
20146;SDS011;10234;50.856;15.716;2023-06-22T11:19:30;8.43;;;4.85;;
20146;SDS011;10234;50.856;15.716;2023-06-22T11:21:57;4.82;;;4.25;;
20146;SDS011;10234;50.856;15.716;2023-06-22T11:24:23;5.82;;;4.65;;
20146;SDS011;10234;50.856;15.716;2023-06-22T11:26:51;7.72;;;4.63;;
20146;SDS011;10234;50.856;15.716;2023-06-22T11:29:18;5.07;;;4.57;;
20146;SDS011;10234;50.856;15.716;2023-06-22T11:31:45;5.72;;;5.13;;
20146;SDS011;10234;50.856;15.716;2023-06-22T11:34:12;5.20;;;4.70;;
20146;SDS011;10234;50.856;15.716;2023-06-22T11:36:39;7.10;;;4.88;;
20146;SDS011;10234;50.856;15.716;2023-06-22T11:39:07;5.70;;;5.10;;
20146;SDS011;10234;50.856;15.716;2023-06-22T11:41:35;6.13;;;4.70;;
20146;SDS011;10234;50.856;15.716;2023-06-22T11:44:03;5.45;;;4.95;;
20146;SDS011;10234;50.856;15.716;2023-06-22T11:46:30;6.35;;;5.00;;
20146;SDS011;10234;50.856;15.716;2023-06-22T11:48:58;7.00;;;4.60;;
20146;SDS011;10234;50.856;15.716;2023-06-22T11:51:24;6.78;;;4.80;;
20146;SDS011;10234;50.856;15.716;2023-06-22T11:53:51;5.55;;;4.97;;
20146;SDS011;10234;50.856;15.716;2023-06-22T11:56:18;4.93;;;4.50;;
20146;SDS011;10234;50.856;15.716;2023-06-22T11:58:45;7.50;;;5.10;;
20146;SDS011;10234;50.856;15.716;2023-06-22T12:01:14;5.00;;;4.57;;
20146;SDS011;10234;50.856;15.716;2023-06-22T12:03:41;5.35;;;4.80;;
20146;SDS011;10234;50.856;15.716;2023-06-22T12:06:09;5.45;;;4.95;;
20146;SDS011;10234;50.856;15.716;2023-06-22T12:08:36;8.60;;;5.57;;
20146;SDS011;10234;50.856;15.716;2023-06-22T12:11:03;8.10;;;5.50;;
20146;SDS011;10234;50.856;15.716;2023-06-22T12:13:32;5.95;;;5.38;;
20146;SDS011;10234;50.856;15.716;2023-06-22T12:16:00;6.22;;;5.47;;
20146;SDS011;10234;50.856;15.716;2023-06-22T12:18:29;5.68;;;5.10;;
20146;SDS011;10234;50.856;15.716;2023-06-22T12:20:56;6.85;;;5.38;;
20146;SDS011;10234;50.856;15.716;2023-06-22T12:23:23;7.68;;;4.75;;
20146;SDS011;10234;50.856;15.716;2023-06-22T12:25:50;5.38;;;4.88;;
20146;SDS011;10234;50.856;15.716;2023-06-22T12:28:17;5.47;;;4.97;;
20146;SDS011;10234;50.856;15.716;2023-06-22T12:30:44;5.30;;;4.80;;
20146;SDS011;10234;50.856;15.716;2023-06-22T12:33:11;8.10;;;5.28;;
20146;SDS011;10234;50.856;15.716;2023-06-22T12:35:39;6.43;;;5.13;;
20146;SDS011;10234;50.856;15.716;2023-06-22T12:38:06;4.95;;;4.47;;
20146;SDS011;10234;50.856;15.716;2023-06-22T12:40:34;5.47;;;4.85;;
20146;SDS011;10234;50.856;15.716;2023-06-22T12:43:01;6.35;;;5.20;;
20146;SDS011;10234;50.856;15.716;2023-06-22T12:45:28;5.15;;;4.55;;
20146;SDS011;10234;50.856;15.716;2023-06-22T12:47:58;5.53;;;4.82;;
20146;SDS011;10234;50.856;15.716;2023-06-22T12:50:25;6.97;;;5.38;;
20146;SDS011;10234;50.856;15.716;2023-06-22T12:52:54;8.50;;;5.50;;
20146;SDS011;10234;50.856;15.716;2023-06-22T12:55:20;7.18;;;5.55;;
20146;SDS011;10234;50.856;15.716;2023-06-22T12:57:48;11.43;;;5.93;;
20146;SDS011;10234;50.856;15.716;2023-06-22T13:00:15;6.43;;;5.60;;
20146;SDS011;10234;50.856;15.716;2023-06-22T13:02:43;6.47;;;5.53;;
20146;SDS011;10234;50.856;15.716;2023-06-22T13:05:10;6.70;;;6.00;;
20146;SDS011;10234;50.856;15.716;2023-06-22T13:07:37;6.35;;;5.75;;
20146;SDS011;10234;50.856;15.716;2023-06-22T13:10:06;8.77;;;6.03;;
20146;SDS011;10234;50.856;15.716;2023-06-22T13:12:33;7.32;;;5.80;;
20146;SDS011;10234;50.856;15.716;2023-06-22T13:15:00;5.88;;;5.28;;
20146;SDS011;10234;50.856;15.716;2023-06-22T13:17:28;7.63;;;5.80;;
20146;SDS011;10234;50.856;15.716;2023-06-22T13:19:55;6.88;;;6.10;;
20146;SDS011;10234;50.856;15.716;2023-06-22T13:22:26;6.60;;;5.97;;
20146;SDS011;10234;50.856;15.716;2023-06-22T13:24:54;6.47;;;5.65;;
20146;SDS011;10234;50.856;15.716;2023-06-22T13:27:22;8.52;;;6.15;;
20146;SDS011;10234;50.856;15.716;2023-06-22T13:29:50;7.45;;;6.00;;
20146;SDS011;10234;50.856;15.716;2023-06-22T13:32:17;7.43;;;5.78;;
20146;SDS011;10234;50.856;15.716;2023-06-22T13:34:44;7.78;;;6.00;;
20146;SDS011;10234;50.856;15.716;2023-06-22T13:37:11;7.95;;;6.10;;
20146;SDS011;10234;50.856;15.716;2023-06-22T13:39:38;8.00;;;6.15;;
20146;SDS011;10234;50.856;15.716;2023-06-22T13:42:06;7.93;;;6.45;;
20146;SDS011;10234;50.856;15.716;2023-06-22T13:44:34;7.57;;;6.35;;
20146;SDS011;10234;50.856;15.716;2023-06-22T13:47:01;10.25;;;6.97;;
20146;SDS011;10234;50.856;15.716;2023-06-22T13:49:29;7.50;;;5.95;;
20146;SDS011;10234;50.856;15.716;2023-06-22T13:51:56;7.55;;;6.75;;
20146;SDS011;10234;50.856;15.716;2023-06-22T13:54:24;7.32;;;6.55;;
20146;SDS011;10234;50.856;15.716;2023-06-22T13:56:54;6.53;;;5.82;;
20146;SDS011;10234;50.856;15.716;2023-06-22T13:59:21;8.20;;;6.13;;
20146;SDS011;10234;50.856;15.716;2023-06-22T14:01:49;6.63;;;5.97;;
20146;SDS011;10234;50.856;15.716;2023-06-22T14:04:16;7.10;;;6.03;;
20146;SDS011;10234;50.856;15.716;2023-06-22T14:06:43;9.10;;;6.55;;
20146;SDS011;10234;50.856;15.716;2023-06-22T14:09:10;7.22;;;6.32;;
20146;SDS011;10234;50.856;15.716;2023-06-22T14:11:37;7.18;;;6.18;;
20146;SDS011;10234;50.856;15.716;2023-06-22T14:14:04;6.38;;;5.78;;
20146;SDS011;10234;50.856;15.716;2023-06-22T14:16:31;8.75;;;7.05;;
20146;SDS011;10234;50.856;15.716;2023-06-22T14:19:00;9.18;;;6.43;;
20146;SDS011;10234;50.856;15.716;2023-06-22T14:21:27;7.32;;;6.25;;
20146;SDS011;10234;50.856;15.716;2023-06-22T14:23:54;7.63;;;6.47;;
20146;SDS011;10234;50.856;15.716;2023-06-22T14:26:21;7.22;;;6.07;;
20146;SDS011;10234;50.856;15.716;2023-06-22T14:28:48;7.50;;;6.70;;
20146;SDS011;10234;50.856;15.716;2023-06-22T14:31:16;6.90;;;6.20;;
20146;SDS011;10234;50.856;15.716;2023-06-22T14:33:45;7.10;;;6.20;;
20146;SDS011;10234;50.856;15.716;2023-06-22T14:36:14;7.88;;;6.75;;
20146;SDS011;10234;50.856;15.716;2023-06-22T14:38:42;10.40;;;6.88;;